Time;durP1;ratioP1;P1;durP2;ratioP2;P2;SDS_P1;SDS_P2;PMS_P1;PMS_P2;Temp;Humidity;BMP_temperature;BMP_pressure;BME280_temperature;BME280_humidity;BME280_pressure;Samples;Min_cycle;Max_cycle;Signal;HPM_P1;HPM_P2
2022/05/14 00:01:58;;;;;;;9.23;3.50;;;;;;;;;;6283114;22;20033;-90
2022/05/14 00:04:27;;;;;;;11.00;3.63;;;;;;;;;;6284607;22;19999;-89
2022/05/14 00:07:01;;;;;;;11.80;3.88;;;;;;;;;;6286150;22;20094;-92
2022/05/14 00:09:35;;;;;;;13.32;3.45;;;;;;;;;;6311423;22;20004;-91
2022/05/14 00:14:48;;;;;;;11.63;3.45;;;;;;;;;;6309827;22;20099;-90
2022/05/14 00:17:14;;;;;;;18.00;5.35;;;;;;;;;;6287673;22;20009;-93
2022/05/14 00:19:40;;;;;;;252.90;83.25;;;;;;;;;;6284512;22;20015;-91
2022/05/14 00:22:16;;;;;;;317.48;96.93;;;;;;;;;;6282720;22;20191;-93
2022/05/14 00:24:50;;;;;;;362.83;111.70;;;;;;;;;;6286161;22;20015;-91
2022/05/14 00:27:16;;;;;;;359.55;110.53;;;;;;;;;;6285001;22;20003;-92
2022/05/14 00:29:42;;;;;;;321.58;100.88;;;;;;;;;;6282275;22;20011;-92
2022/05/14 00:32:18;;;;;;;;;;;;;;;;;;;;;
2022/05/14 00:34:44;;;;;;;270.95;90.97;;;;;;;;;;6310351;22;20022;-93
2022/05/14 00:37:10;;;;;;;316.52;102.97;;;;;;;;;;6282084;22;20086;-92
2022/05/14 00:39:37;;;;;;;240.77;84.25;;;;;;;;;;6281903;22;20215;-91
2022/05/14 00:42:03;;;;;;;194.30;73.75;;;;;;;;;;6283926;22;20028;-93
2022/05/14 00:44:31;;;;;;;287.42;95.32;;;;;;;;;;6280530;22;20007;-92
2022/05/14 00:47:01;;;;;;;278.58;93.28;;;;;;;;;;6282542;22;20026;-94
2022/05/14 00:49:29;;;;;;;185.65;71.32;;;;;;;;;;6284508;22;20497;-93
2022/05/14 00:51:59;;;;;;;287.92;97.20;;;;;;;;;;6284728;22;20007;-92
2022/05/14 00:54:28;;;;;;;332.90;106.95;;;;;;;;;;6284675;22;20086;-91
2022/05/14 00:56:58;;;;;;;289.77;97.30;;;;;;;;;;6284919;22;20007;-92
2022/05/14 00:59:28;;;;;;;245.50;86.63;;;;;;;;;;6282493;22;19999;-90
2022/05/14 01:01:57;;;;;;;303.50;99.90;;;;;;;;;;6281971;22;20378;-91
2022/05/14 01:04:23;;;;;;;303.88;102.53;;;;;;;;;;6280735;22;20071;-90
2022/05/14 01:06:51;;;;;;;358.52;112.78;;;;;;;;;;6280677;22;20007;-90
2022/05/14 01:09:19;;;;;;;386.57;121.03;;;;;;;;;;6280932;22;20041;-92
2022/05/14 01:11:46;;;;;;;325.50;104.28;;;;;;;;;;6280432;22;20007;-91
2022/05/14 01:14:12;;;;;;;374.52;117.32;;;;;;;;;;6282494;22;20037;-93
2022/05/14 01:16:38;;;;;;;254.07;80.63;;;;;;;;;;6289391;22;20003;-92
2022/05/14 01:19:05;;;;;;;248.25;84.13;;;;;;;;;;6285949;22;20026;-93
2022/05/14 01:21:50;;;;;;;255.45;85.85;;;;;;;;;;6257501;22;20134;-89
2022/05/14 01:27:12;;;;;;;230.18;74.97;;;;;;;;;;6306456;22;20064;-90
2022/05/14 01:29:38;;;;;;;336.40;110.32;;;;;;;;;;6277342;22;20031;-90
2022/05/14 01:32:08;;;;;;;363.98;121.35;;;;;;;;;;6277643;22;20009;-90
2022/05/14 01:34:37;;;;;;;382.65;125.30;;;;;;;;;;6278709;22;20003;-90
2022/05/14 01:37:03;;;;;;;378.48;118.47;;;;;;;;;;6278918;22;20011;-91
2022/05/14 01:39:29;;;;;;;449.63;139.15;;;;;;;;;;6279764;22;20006;-90
2022/05/14 01:41:56;;;;;;;474.60;144.55;;;;;;;;;;6278940;22;19999;-90
2022/05/14 01:44:43;;;;;;;449.50;136.93;;;;;;;;;;6279589;22;20007;-92
2022/05/14 01:47:17;;;;;;;456.23;142.23;;;;;;;;;;6279246;22;20069;-94
2022/05/14 01:49:44;;;;;;;462.67;142.43;;;;;;;;;;6278101;22;20034;-90
2022/05/14 01:52:14;;;;;;;494.00;152.07;;;;;;;;;;6278263;22;20081;-92
2022/05/14 01:54:40;;;;;;;487.25;149.65;;;;;;;;;;6278888;22;20014;-90
2022/05/14 01:57:07;;;;;;;475.70;145.43;;;;;;;;;;6279882;22;20057;-92
2022/05/14 01:59:35;;;;;;;473.33;144.38;;;;;;;;;;6280515;22;20018;-91
2022/05/14 02:02:02;;;;;;;502.52;153.88;;;;;;;;;;6278977;22;20011;-90
2022/05/14 02:04:29;;;;;;;505.58;154.05;;;;;;;;;;6280657;22;20339;-92
2022/05/14 02:06:55;;;;;;;520.40;158.20;;;;;;;;;;6285044;22;20003;-92
2022/05/14 02:09:22;;;;;;;529.67;161.80;;;;;;;;;;6284182;22;20003;-93
2022/05/14 02:11:48;;;;;;;517.58;155.98;;;;;;;;;;6280987;22;20507;-91
2022/05/14 02:14:19;;;;;;;527.30;160.38;;;;;;;;;;6281916;22;19991;-91
2022/05/14 02:16:53;;;;;;;452.35;138.32;;;;;;;;;;6282682;22;20006;-91
2022/05/14 02:19:22;;;;;;;532.35;161.60;;;;;;;;;;6280399;22;20023;-91
2022/05/14 02:21:48;;;;;;;549.50;168.85;;;;;;;;;;6279864;22;20014;-90
2022/05/14 02:24:16;;;;;;;528.95;161.35;;;;;;;;;;6281858;22;20007;-89
2022/05/14 02:26:43;;;;;;;518.55;158.15;;;;;;;;;;6279793;22;20218;-91
2022/05/14 02:29:11;;;;;;;538.42;165.10;;;;;;;;;;6281110;22;20023;-92
2022/05/14 02:31:37;;;;;;;554.30;172.25;;;;;;;;;;6282083;22;19999;-93
2022/05/14 02:34:03;;;;;;;572.80;181.40;;;;;;;;;;6279753;22;20030;-92
2022/05/14 02:36:29;;;;;;;568.85;180.15;;;;;;;;;;6278192;22;20086;-89
2022/05/14 02:38:55;;;;;;;572.95;179.02;;;;;;;;;;6277652;22;20494;-91
2022/05/14 02:41:22;;;;;;;469.50;142.02;;;;;;;;;;6279753;22;19999;-90
2022/05/14 02:43:48;;;;;;;502.55;151.23;;;;;;;;;;6279473;22;20071;-94
2022/05/14 02:46:14;;;;;;;536.20;158.80;;;;;;;;;;6279952;22;20623;-92
2022/05/14 02:48:40;;;;;;;559.97;168.40;;;;;;;;;;6281243;22;20003;-92
2022/05/14 02:51:06;;;;;;;540.60;163.32;;;;;;;;;;6280527;22;20473;-93
2022/05/14 02:54:00;;;;;;;;;;;;;;;;;;;;;
2022/05/14 02:56:26;;;;;;;566.83;175.55;;;;;;;;;;6310264;22;20023;-90
2022/05/14 02:59:08;;;;;;;491.23;150.68;;;;;;;;;;6283423;22;20017;-91
2022/05/14 03:01:40;;;;;;;522.47;160.48;;;;;;;;;;6278627;22;20069;-89
2022/05/14 03:04:14;;;;;;;475.70;142.32;;;;;;;;;;6278755;22;20041;-92
2022/05/14 03:06:40;;;;;;;488.13;144.00;;;;;;;;;;6278888;22;20011;-91
2022/05/14 03:09:06;;;;;;;563.35;169.55;;;;;;;;;;6278981;22;20003;-91
2022/05/14 03:11:32;;;;;;;488.40;143.52;;;;;;;;;;6278765;22;20007;-90
2022/05/14 03:13:58;;;;;;;463.15;136.82;;;;;;;;;;6278547;22;20479;-91
2022/05/14 03:16:24;;;;;;;475.35;139.32;;;;;;;;;;6279927;22;20431;-90
2022/05/14 03:18:50;;;;;;;488.70;141.95;;;;;;;;;;6278419;22;20007;-92
2022/05/14 03:21:16;;;;;;;495.40;144.57;;;;;;;;;;6278647;22;20382;-91
2022/05/14 03:23:42;;;;;;;469.73;139.25;;;;;;;;;;6278683;22;20008;-91
2022/05/14 03:26:08;;;;;;;485.92;140.80;;;;;;;;;;6278346;22;20466;-91
2022/05/14 03:28:34;;;;;;;462.60;138.38;;;;;;;;;;6278497;22;20046;-92
2022/05/14 03:31:00;;;;;;;469.60;138.45;;;;;;;;;;6278726;22;20004;-92
2022/05/14 03:33:26;;;;;;;462.08;137.63;;;;;;;;;;6278656;22;19995;-91
2022/05/14 03:35:53;;;;;;;466.05;137.88;;;;;;;;;;6279084;22;20018;-92
2022/05/14 03:38:19;;;;;;;467.85;139.20;;;;;;;;;;6278421;22;20011;-91
2022/05/14 03:40:45;;;;;;;482.15;143.00;;;;;;;;;;6278471;22;20006;-91
2022/05/14 03:43:11;;;;;;;519.38;154.32;;;;;;;;;;6278330;22;20005;-92
2022/05/14 03:45:37;;;;;;;519.75;153.63;;;;;;;;;;6277963;22;20036;-92
2022/05/14 03:48:03;;;;;;;523.40;156.43;;;;;;;;;;6278035;22;20010;-91
2022/05/14 03:50:29;;;;;;;572.35;174.85;;;;;;;;;;6278696;22;20003;-90
2022/05/14 03:52:57;;;;;;;533.78;159.73;;;;;;;;;;6279140;22;19999;-92
2022/05/14 03:55:23;;;;;;;529.85;158.43;;;;;;;;;;6279112;22;20325;-90
2022/05/14 03:57:49;;;;;;;499.77;151.15;;;;;;;;;;6278237;22;19999;-90
2022/05/14 04:00:16;;;;;;;529.08;160.30;;;;;;;;;;6277967;22;20436;-90
2022/05/14 04:02:42;;;;;;;547.38;167.82;;;;;;;;;;6278174;22;20018;-90
2022/05/14 04:05:08;;;;;;;570.30;176.63;;;;;;;;;;6278410;22;20485;-90
2022/05/14 04:07:34;;;;;;;556.65;172.77;;;;;;;;;;6278063;22;20003;-91
2022/05/14 04:10:00;;;;;;;559.00;169.52;;;;;;;;;;6278056;22;19999;-90
2022/05/14 04:12:50;;;;;;;552.85;166.88;;;;;;;;;;6279434;22;20003;-92
2022/05/14 04:15:19;;;;;;;553.58;168.73;;;;;;;;;;6279209;22;20014;-92
2022/05/14 04:17:45;;;;;;;523.95;157.43;;;;;;;;;;6279190;22;20003;-90
2022/05/14 04:20:17;;;;;;;533.85;160.52;;;;;;;;;;6278216;22;20004;-91
2022/05/14 04:22:43;;;;;;;529.30;159.85;;;;;;;;;;6277848;22;20459;-90
2022/05/14 04:25:12;;;;;;;504.73;151.88;;;;;;;;;;6277910;22;20011;-94
2022/05/14 04:27:46;;;;;;;545.10;163.30;;;;;;;;;;6278139;22;20444;-92
2022/05/14 04:30:13;;;;;;;575.97;178.75;;;;;;;;;;6279532;22;20000;-91
2022/05/14 04:32:42;;;;;;;570.80;175.20;;;;;;;;;;6280724;22;20007;-94
2022/05/14 04:35:08;;;;;;;;;;;;;;;;;;6283822;22;20128;-93
2022/05/14 04:38:00;;;;;;;;;;;;;;;;;;;;;
2022/05/14 04:40:38;;;;;;;545.92;165.73;;;;;;;;;;6309485;22;20513;-89
2022/05/14 04:43:05;;;;;;;487.77;148.73;;;;;;;;;;6277826;22;20003;-90
2022/05/14 04:46:04;;;;;;;;;;;;;;;;;;;;;
2022/05/14 04:49:15;;;;;;;;;;;;;;;;;;;;;
2022/05/14 04:55:28;;;;;;;484.25;144.82;;;;;;;;;;6185678;23;20016;-91
2022/05/14 04:57:54;;;;;;;500.95;149.07;;;;;;;;;;6193761;23;20028;-90
2022/05/14 05:00:26;;;;;;;547.70;166.18;;;;;;;;;;6339108;22;20011;-92
2022/05/14 05:05:38;;;;;;;511.63;154.48;;;;;;;;;;6327194;22;20076;-91
2022/05/14 05:08:04;;;;;;;470.60;142.93;;;;;;;;;;6263856;22;20051;-92
2022/05/14 05:10:33;;;;;;;468.77;141.18;;;;;;;;;;6296748;22;20014;-89
2022/05/14 05:13:24;;;;;;;458.80;139.77;;;;;;;;;;6322276;22;19999;-90
2022/05/14 05:15:52;;;;;;;502.80;153.98;;;;;;;;;;6327707;22;20055;-92
2022/05/14 05:18:20;;;;;;;;;;;;;;;;;;6322757;22;20016;-91
2022/05/14 05:20:49;;;;;;;532.22;164.75;;;;;;;;;;6346806;22;19982;-90
2022/05/14 05:23:28;;;;;;;627.20;206.38;;;;;;;;;;6323166;22;20007;-89
2022/05/14 05:25:57;;;;;;;18.15;7.13;;;;;;;;;;6292888;22;20018;-91
2022/05/14 05:28:32;;;;;;;17.58;11.40;;;;;;;;;;6286145;22;20081;-90
2022/05/14 05:30:58;;;;;;;196.35;75.80;;;;;;;;;;6282640;22;20439;-90
2022/05/14 05:33:42;;;;;;;;;;;;;;;;;;;;;
2022/05/14 05:36:14;;;;;;;16.67;6.72;;;;;;;;;;6307190;22;20068;-90
2022/05/14 05:38:40;;;;;;;171.15;69.93;;;;;;;;;;6281026;22;20003;-89
2022/05/14 05:41:32;;;;;;;240.88;87.70;;;;;;;;;;6286138;22;19999;-93
2022/05/14 05:44:00;;;;;;;109.88;49.33;;;;;;;;;;6313946;22;20004;-89
2022/05/14 05:46:29;;;;;;;;;;;;;;;;;;6293905;22;20042;-91
2022/05/14 05:49:08;;;;;;;;;;;;;;;;;;;;;
2022/05/14 05:51:39;;;;;;;74.65;37.72;;;;;;;;;;6304861;22;20082;-92
2022/05/14 05:56:56;;;;;;;92.15;45.97;;;;;;;;;;6306122;22;20017;-94
2022/05/14 05:59:22;;;;;;;103.93;45.33;;;;;;;;;;6279728;22;20003;-93
2022/05/14 06:01:52;;;;;;;82.70;36.28;;;;;;;;;;6278052;22;20011;-90
2022/05/14 06:04:24;;;;;;;12.93;3.67;;;;;;;;;;6278520;22;20006;-92
2022/05/14 06:06:50;;;;;;;71.82;31.95;;;;;;;;;;6276794;22;20348;-89
2022/05/14 06:15:59;;;;;;;;;;;;;;;;;;;;;
2022/05/14 07:25:04;;;;;;;14.65;6.88;;;;;;;;;;5842279;24;20026;-93
2022/05/14 07:47:19;;;;;;;17.70;5.47;;;;;;;;;;5804252;24;20418;-91
2022/05/14 08:03:05;;;;;;;18.10;6.53;;;;;;;;;;6036279;23;20008;-91
2022/05/14 08:05:36;;;;;;;16.13;5.18;;;;;;;;;;6012245;23;20434;-91
2022/05/14 08:08:25;;;;;;;8.15;3.97;;;;;;;;;;6036002;23;20444;-93
2022/05/14 08:10:55;;;;;;;12.18;4.88;;;;;;;;;;6028693;23;20465;-90
2022/05/14 08:13:45;;;;;;;15.75;4.82;;;;;;;;;;6076902;23;20011;-92
2022/05/14 08:16:10;;;;;;;6.50;3.22;;;;;;;;;;6263580;22;20007;-90
2022/05/14 08:19:18;;;;;;;7.38;3.15;;;;;;;;;;6280220;22;20003;-93
2022/05/14 08:24:32;;;;;;;9.20;2.83;;;;;;;;;;6306988;22;20335;-90
2022/05/14 08:27:31;;;;;;;14.83;3.80;;;;;;;;;;6277709;22;20007;-92
2022/05/14 08:29:57;;;;;;;15.68;4.10;;;;;;;;;;6255619;22;20226;-91
2022/05/14 08:32:28;;;;;;;18.73;4.28;;;;;;;;;;6278593;22;20068;-92
2022/05/14 08:34:57;;;;;;;12.90;4.20;;;;;;;;;;6277876;22;20101;-92
2022/05/14 08:37:24;;;;;;;12.63;4.32;;;;;;;;;;6286978;22;19999;-90
2022/05/14 08:43:14;;;;;;;10.77;3.33;;;;;;;;;;6306896;22;20321;-93
2022/05/14 08:45:44;;;;;;;7.47;3.23;;;;;;;;;;6215970;23;20012;-91
2022/05/14 08:51:37;;;;;;;10.73;4.80;;;;;;;;;;6219575;23;20348;-91
2022/05/14 08:54:10;;;;;;;12.80;3.83;;;;;;;;;;6215582;23;20008;-91
2022/05/14 08:56:57;;;;;;;8.98;3.50;;;;;;;;;;6214919;23;20012;-93
2022/05/14 08:59:38;;;;;;;15.98;3.60;;;;;;;;;;6265853;22;20004;-93
2022/05/14 09:06:07;;;;;;;15.38;5.00;;;;;;;;;;6166995;23;20017;-93
2022/05/14 09:40:31;;;;;;;11.05;3.75;;;;;;;;;;5978249;24;20503;-91
2022/05/14 09:43:32;;;;;;;;;;;;;;;;;;;;;
2022/05/14 09:49:27;;;;;;;6.95;3.13;;;;;;;;;;6190165;23;20031;-91
2022/05/14 09:52:19;;;;;;;12.55;3.75;;;;;;;;;;6214987;23;20087;-93
2022/05/14 10:01:47;;;;;;;;;;;;;;;;;;;;;
2022/05/14 10:29:07;;;;;;;13.52;3.10;;;;;;;;;;6005959;23;20086;-92
2022/05/14 10:34:53;;;;;;;15.35;3.67;;;;;;;;;;6005687;23;20019;-91
2022/05/14 10:37:48;;;;;;;12.88;2.83;;;;;;;;;;6024295;23;20014;-90
2022/05/14 10:40:31;;;;;;;11.55;2.70;;;;;;;;;;6083581;23;20010;-89
2022/05/14 10:43:20;;;;;;;8.60;3.05;;;;;;;;;;6091801;23;20014;-93
2022/05/14 10:46:06;;;;;;;10.50;2.67;;;;;;;;;;6091963;23;20018;-94
2022/05/14 10:48:38;;;;;;;7.32;2.60;;;;;;;;;;6086591;23;20009;-91
2022/05/14 10:51:06;;;;;;;16.60;2.55;;;;;;;;;;6091159;23;20041;-89
2022/05/14 10:53:33;;;;;;;6.43;2.25;;;;;;;;;;6213491;22;20000;-91
2022/05/14 10:55:59;;;;;;;11.23;3.37;;;;;;;;;;6245948;22;20086;-89
2022/05/14 10:58:45;;;;;;;8.43;2.78;;;;;;;;;;6246256;22;20007;-91
2022/05/14 11:01:29;;;;;;;10.70;2.75;;;;;;;;;;6246182;22;20031;-91
2022/05/14 11:03:56;;;;;;;19.02;3.25;;;;;;;;;;6246839;22;20022;-90
2022/05/14 11:06:43;;;;;;;8.68;3.08;;;;;;;;;;6246414;22;20012;-93
2022/05/14 11:09:16;;;;;;;11.75;2.50;;;;;;;;;;6246680;22;20169;-89
2022/05/14 11:21:08;;;;;;;;;;;;;;;;;;;;;
2022/05/14 11:34:03;;;;;;;;;;;;;;;;;;;;;
2022/05/14 11:36:53;;;;;;;7.15;2.78;;;;;;;;;;6022670;23;20102;-92
2022/05/14 11:39:19;;;;;;;9.73;2.97;;;;;;;;;;6035138;23;20007;-91
2022/05/14 11:42:26;;;;;;;5.72;2.55;;;;;;;;;;6074421;23;20015;-91
2022/05/14 11:45:12;;;;;;;11.93;2.70;;;;;;;;;;6149010;23;20006;-93
2022/05/14 11:47:51;;;;;;;11.02;5.15;;;;;;;;;;6125884;23;20402;-91
2022/05/14 11:50:23;;;;;;;12.75;4.55;;;;;;;;;;6164581;22;20004;-91
2022/05/14 11:52:58;;;;;;;11.60;3.92;;;;;;;;;;6274250;22;20007;-91
2022/05/14 11:55:30;;;;;;;10.85;3.22;;;;;;;;;;6276511;22;19992;-90
2022/05/14 11:58:16;;;;;;;11.55;3.80;;;;;;;;;;6250527;22;20035;-90
2022/05/14 12:00:47;;;;;;;8.23;2.75;;;;;;;;;;6247096;22;19996;-92
2022/05/14 12:03:27;;;;;;;7.72;3.08;;;;;;;;;;6246347;22;20008;-92
2022/05/14 12:05:57;;;;;;;13.73;3.50;;;;;;;;;;6246987;22;20454;-92
2022/05/14 12:09:03;;;;;;;6.55;3.20;;;;;;;;;;6246798;22;20347;-91
2022/05/14 12:12:03;;;;;;;17.30;3.28;;;;;;;;;;6273150;22;20004;-92
2022/05/14 12:14:36;;;;;;;9.98;3.00;;;;;;;;;;6125997;23;20080;-92
2022/05/14 12:17:56;;;;;;;7.43;3.28;;;;;;;;;;6229529;22;20094;-93
2022/05/14 12:20:51;;;;;;;;;;;;;;;;;;;;;
2022/05/14 12:26:31;;;;;;;6.90;3.03;;;;;;;;;;6229780;22;20020;-93
2022/05/14 12:29:05;;;;;;;13.02;3.05;;;;;;;;;;6247635;22;20011;-92
2022/05/14 12:37:34;;;;;;;14.13;3.53;;;;;;;;;;6263389;22;20008;-92
2022/05/14 12:40:03;;;;;;;10.18;3.13;;;;;;;;;;6247821;22;20014;-92
2022/05/14 12:43:32;;;;;;;8.77;2.75;;;;;;;;;;6247337;22;20436;-92
2022/05/14 12:46:01;;;;;;;15.93;3.22;;;;;;;;;;6219328;22;20019;-89
2022/05/14 13:58:26;;;;;;;12.80;4.13;;;;;;;;;;6186054;22;20377;-90
2022/05/14 17:27:00;;;;;;;;;;;;;;;;;;;;;
